Aircraft
UPR1005 PR-QAA Citation
LGAV
Athens Eleftherios Venizelos International Airport
OERB
Rabigh Airport
Pilot:: Eber
Aircraft:: Cessna Citation CJ4
Alternate: OEJN
Network: ivao
FLIGHT DETAILS
Distance: 1202nm Duration 00h 00m
Cruise Speed: Flight Level: 41000
Validation: Pending Validation Type Charter
Flight Fuel
ZFW: 5113
Block Fuel/Initial FOB: 2663
Flight Fuel: 1786
Cargo
Passengers: 7
Cargo: 0
ROUTE
ROUTE: BIBE1E BIBEX MADEX UN132 KUMBI L612 BLT A16 CVO L315 HGD M872 WEJ T510 VELEK Q13 YEN V44 PASAG
REMARKS:
DATE
Date: 26-05-03
Departure Time: 1423
Cargo: 0
FLIGHT DETAILS
Crashed: No
Validator Comments:
Flight Rating: 99
LANDING ANALYSIS
Landing wind: 167º/5 kt
Landing heading: 150º
Landing VS:: -64 ft/min
Landing IAS:: 110 kt
Landing Force G: 1.1 G
Landing Bank: -4
Landing Pitch: -1
Landing Flaps: 100
Navigation Lights: ON
Landing Lights: ON
Beacon Lights: ON
Strobe Lights: ON
viserfly

ALTITUDE CHART

viserfly

MAIN EVENTS

DATE EVENT IAS ALTITUDE
2026-05-03 13:54:31 FLYacars version 1.3.5 0 269
2026-05-03 13:54:31 Beacon Lights ON 0 269
2026-05-03 13:55:14 Taxi Lights ON 0 269
2026-05-03 13:55:16 Aircraft boarding in progress 0 269
2026-05-03 13:55:16 Navigation Lights ON 0 269
2026-05-03 13:55:16 Strobe Lights ON 0 269
2026-05-03 13:55:29 Starting Engine 2 0 269
2026-05-03 13:55:44 Starting Engine 1 0 269
2026-05-03 14:01:15 FLAPS 50% 0 269
2026-05-03 14:14:43 Aircraft taxiing to runway 0 269
2026-05-03 14:22:39 Landing Lights ON 28 286
2026-05-03 14:22:39 Taxi Lights OFF 28 286
2026-05-03 14:23:00 Detected Take-off roll, HDG 17, IAS 151kt, GS 131kt, G-force 1.1g, Pitch -2.1deg, Bank 0.5deg, Wind 000/26kt, Temp 15°C 151 279
2026-05-03 14:23:00 Airborne 151 279
2026-05-03 14:23:06 Gear UP, IAS 176kt, GS 153kt, ALT 53ft AGL 176 327
2026-05-03 14:23:24 FLAPS 0% 221kt, ALT 708ft 221 708
2026-05-03 14:25:46 Landing lights ON above 10000fts 215 11001
2026-05-03 14:25:54 Landing Lights OFF 222 11549
2026-05-03 15:14:05 Aircraft on Top Of Climb at 40501ft, IAS 212kt, GS 450kt, HDG 142deg, TAT -49deg, WIND 261/60kt 212 40501
2026-05-03 16:57:14 Aircraft on Top Of Descent at 40497ft, IAS 224kt, GS 439kt, HDG 140deg, TAT -53deg, WIND 243/72kt 224 40497
2026-05-03 17:11:17 Landing Lights ON 236 9902
2026-05-03 17:11:18 Taxi Lights ON 235 9877
2026-05-03 17:15:04 Gear DOWN, IAS 231kt, GS 259kt, ALT 3959ft AGL 231 3960
2026-05-03 17:15:35 FLAPS 100% 190kt, ALT 3268ft 190 3268
2026-05-03 17:19:51 Landed at destination with a landing rate of -64fpm, G-force 1.1g, Pitch -1.4deg, Bank -4.3deg, HDG 150deg, IAS 110kt, GS 109kt, Wind 167/05kt, Temp 32°C 110 20
2026-05-03 17:20:07 Aircraft taxiing to apron 27 20
2026-05-03 17:22:58 Strobe Lights OFF 3 21
2026-05-03 17:22:58 Navigation Lights OFF 2 21
2026-05-03 17:23:00 Landing Lights OFF 2 21
2026-05-03 17:23:00 Taxi Lights OFF 2 21
2026-05-03 17:24:45 Engine 1 shutdown 4 21
2026-05-03 17:24:46 Engine 2 shutdown 4 21
2026-05-03 21:49:43 Flight restarted in the acars 0 21
2026-05-03 21:49:49 FLAPS 100% 1 21
2026-05-03 21:49:49 Beacon Lights ON 1 21
2026-05-03 21:50:05 Aircraft at gate/stand, ground services are moving into position, disembarkation has begun. Remaining FOB 877kg FLYacars v1.3.5 0 21
viserfly

ACARS DATA

DATE IAS GS ALTITUDE FUEL CONSUMED OAT FLIGHT STATUS
2026-05-03 13:55:01 0 0 269 0 15 BOARDING
2026-05-03 13:55:31 0 2 269 0 15 PUSHBACK
2026-05-03 13:56:01 0 0 269 1 15 PUSHBACK
2026-05-03 13:56:31 0 0 269 2 15 PUSHBACK
2026-05-03 13:57:01 0 0 269 3 15 PUSHBACK
2026-05-03 13:57:31 0 0 269 4 15 PUSHBACK
2026-05-03 13:58:01 0 0 269 5 15 PUSHBACK
2026-05-03 13:58:31 0 0 269 5 15 PUSHBACK
2026-05-03 13:59:01 0 0 269 6 15 PUSHBACK
2026-05-03 13:59:31 0 0 269 7 15 PUSHBACK
2026-05-03 14:00:01 0 0 269 8 15 PUSHBACK
2026-05-03 14:00:31 0 0 269 9 15 PUSHBACK
2026-05-03 14:01:01 0 0 269 10 15 PUSHBACK
2026-05-03 14:01:31 0 0 269 11 15 PUSHBACK
2026-05-03 14:02:01 0 0 269 12 15 PUSHBACK
2026-05-03 14:02:31 0 0 269 13 15 PUSHBACK
2026-05-03 14:03:01 0 0 269 14 15 PUSHBACK
2026-05-03 14:03:31 0 0 269 15 15 PUSHBACK
2026-05-03 14:04:01 0 0 269 16 15 PUSHBACK
2026-05-03 14:04:31 0 0 269 16 15 PUSHBACK
2026-05-03 14:05:01 0 0 269 17 15 PUSHBACK
2026-05-03 14:05:31 0 0 269 18 15 PUSHBACK
2026-05-03 14:06:01 0 0 269 19 15 PUSHBACK
2026-05-03 14:06:31 0 0 269 20 15 PUSHBACK
2026-05-03 14:07:01 0 0 269 21 15 PUSHBACK
2026-05-03 14:07:31 0 0 269 22 15 PUSHBACK
2026-05-03 14:08:01 0 0 269 23 15 PUSHBACK
2026-05-03 14:08:31 0 0 269 24 15 PUSHBACK
2026-05-03 14:09:01 0 0 269 25 15 PUSHBACK
2026-05-03 14:09:31 0 0 269 26 15 PUSHBACK
2026-05-03 14:10:01 0 0 269 27 15 PUSHBACK
2026-05-03 14:10:31 0 0 269 27 15 PUSHBACK
2026-05-03 14:11:01 0 0 269 28 15 PUSHBACK
2026-05-03 14:11:31 0 0 269 29 15 PUSHBACK
2026-05-03 14:12:01 0 0 269 30 15 PUSHBACK
2026-05-03 14:12:31 0 0 269 31 15 PUSHBACK
2026-05-03 14:13:01 0 0 269 32 15 PUSHBACK
2026-05-03 14:13:31 0 0 269 33 15 PUSHBACK
2026-05-03 14:14:01 0 0 269 34 15 PUSHBACK
2026-05-03 14:14:31 0 0 269 35 15 PUSHBACK
2026-05-03 14:15:01 0 9 268 36 15 TAXI TO RUNWAY
2026-05-03 14:15:31 0 15 270 37 15 TAXI TO RUNWAY
2026-05-03 14:16:01 2 19 271 38 15 TAXI TO RUNWAY
2026-05-03 14:16:31 0 22 274 39 15 TAXI TO RUNWAY
2026-05-03 14:17:01 0 22 276 40 15 TAXI TO RUNWAY
2026-05-03 14:17:31 5 22 278 41 15 TAXI TO RUNWAY
2026-05-03 14:18:01 0 21 280 42 14 TAXI TO RUNWAY
2026-05-03 14:18:31 0 21 283 43 14 TAXI TO RUNWAY
2026-05-03 14:19:01 5 20 285 44 14 TAXI TO RUNWAY
2026-05-03 14:19:31 0 10 286 45 14 TAXI TO RUNWAY
2026-05-03 14:20:01 0 0 286 46 14 TAXI TO RUNWAY
2026-05-03 14:20:31 0 0 286 47 14 TAXI TO RUNWAY
2026-05-03 14:21:01 0 0 286 48 14 TAXI TO RUNWAY
2026-05-03 14:21:31 0 0 286 48 14 TAXI TO RUNWAY
2026-05-03 14:22:01 29 18 286 50 14 TAXI TO RUNWAY
2026-05-03 14:22:31 22 0 286 51 14 TAXI TO RUNWAY
2026-05-03 14:23:01 152 132 279 61 15 TAKEOFF
2026-05-03 14:23:31 228 204 1330 73 10 INITIAL CLIMB
2026-05-03 14:24:01 220 203 4223 85 1 CLIMB
2026-05-03 14:24:31 217 208 6249 95 -3 CLIMB
2026-05-03 14:25:01 220 215 8193 105 -7 CLIMB
2026-05-03 14:25:31 217 228 9992 116 -10 CLIMB
2026-05-03 14:26:01 219 234 12052 127 -15 CLIMB
2026-05-03 14:26:31 218 267 13587 138 -18 CLIMB
2026-05-03 14:27:01 217 280 15308 149 -22 CLIMB
2026-05-03 14:27:31 218 282 16972 159 -26 CLIMB
2026-05-03 14:28:01 219 285 18609 170 -30 CLIMB
2026-05-03 14:28:31 218 290 20263 181 -35 CLIMB
2026-05-03 14:29:01 217 294 21836 192 -38 CLIMB
2026-05-03 14:29:31 217 301 23116 202 -41 CLIMB
2026-05-03 14:30:01 218 317 24072 212 -41 CLIMB
2026-05-03 14:30:31 220 332 24913 221 -41 CLIMB
2026-05-03 14:31:01 218 342 25887 231 -41 CLIMB
2026-05-03 14:31:31 211 353 26800 240 -41 CLIMB
2026-05-03 14:32:01 218 369 27465 249 -41 CLIMB
2026-05-03 14:32:31 210 367 28636 258 -41 CLIMB
2026-05-03 14:33:01 207 366 29714 266 -42 CLIMB
2026-05-03 14:33:31 205 369 30592 274 -43 CLIMB
2026-05-03 14:34:01 199 369 31525 282 -44 CLIMB
2026-05-03 14:34:31 196 369 32404 290 -44 CLIMB
2026-05-03 14:35:01 192 368 33265 297 -45 CLIMB
2026-05-03 14:35:31 188 368 34082 305 -45 CLIMB
2026-05-03 14:36:01 184 368 34846 312 -45 CLIMB
2026-05-03 14:36:31 182 369 35540 318 -46 CLIMB
2026-05-03 14:37:01 179 368 36219 325 -46 CLIMB
2026-05-03 14:37:31 176 368 36836 331 -46 CLIMB
2026-05-03 14:38:01 166 358 37712 337 -47 CLIMB
2026-05-03 14:38:31 164 362 38125 342 -47 CLIMB
2026-05-03 14:39:01 162 358 38744 348 -47 CLIMB
2026-05-03 14:39:31 162 356 39273 353 -47 CLIMB
2026-05-03 14:40:01 156 356 39747 358 -48 CLIMB
2026-05-03 14:40:31 156 357 40155 363 -48 CLIMB
2026-05-03 14:41:01 162 369 40225 368 -48 ENROUTE
2026-05-03 14:41:31 172 378 40238 372 -48 ENROUTE
2026-05-03 14:42:01 177 387 40261 377 -48 ENROUTE
2026-05-03 14:42:31 180 395 40258 381 -48 ENROUTE
2026-05-03 14:43:01 182 403 40257 386 -48 ENROUTE
2026-05-03 14:43:31 186 410 40258 390 -48 ENROUTE
2026-05-03 14:44:01 191 415 40257 395 -48 ENROUTE
2026-05-03 14:44:31 192 420 40256 399 -48 ENROUTE
2026-05-03 14:45:01 195 425 40249 404 -48 ENROUTE
2026-05-03 14:45:31 198 428 40266 408 -48 ENROUTE
2026-05-03 14:46:01 200 430 40276 412 -48 ENROUTE
2026-05-03 14:46:31 201 433 40274 417 -48 ENROUTE
2026-05-03 14:47:01 200 435 40270 421 -48 ENROUTE
2026-05-03 14:47:31 201 437 40273 426 -48 ENROUTE
2026-05-03 14:48:01 205 439 40274 430 -48 ENROUTE
2026-05-03 14:48:31 206 439 40276 434 -48 ENROUTE
2026-05-03 14:49:01 206 440 40284 439 -48 ENROUTE
2026-05-03 14:49:31 205 441 40285 443 -48 ENROUTE
2026-05-03 14:50:01 205 442 40290 448 -48 ENROUTE
2026-05-03 14:50:31 206 443 40292 452 -48 ENROUTE
2026-05-03 14:51:01 206 443 40295 456 -48 ENROUTE
2026-05-03 14:51:31 207 444 40297 461 -48 ENROUTE
2026-05-03 14:52:01 206 445 40303 465 -48 ENROUTE
2026-05-03 14:52:31 207 445 40304 470 -48 ENROUTE
2026-05-03 14:53:01 207 446 40305 474 -48 ENROUTE
2026-05-03 14:53:31 207 446 40307 478 -48 ENROUTE
2026-05-03 14:54:01 208 447 40308 483 -48 ENROUTE
2026-05-03 14:54:31 207 447 40309 487 -48 ENROUTE
2026-05-03 14:55:01 207 447 40329 492 -47 ENROUTE
2026-05-03 14:55:31 207 447 40327 496 -47 ENROUTE
2026-05-03 14:56:01 207 448 40326 500 -47 ENROUTE
2026-05-03 14:56:31 207 448 40326 505 -47 ENROUTE
2026-05-03 14:57:01 207 448 40327 509 -47 ENROUTE
2026-05-03 14:57:31 209 448 40344 513 -47 ENROUTE
2026-05-03 14:58:01 208 447 40347 518 -47 ENROUTE
2026-05-03 14:58:31 209 447 40362 522 -48 ENROUTE
2026-05-03 14:59:01 209 447 40363 527 -48 ENROUTE
2026-05-03 14:59:31 208 447 40363 531 -48 ENROUTE
2026-05-03 15:00:01 208 447 40364 535 -48 ENROUTE
2026-05-03 15:00:31 209 446 40377 540 -48 ENROUTE
2026-05-03 15:01:01 209 446 40378 544 -48 ENROUTE
2026-05-03 15:01:31 209 446 40378 548 -48 ENROUTE
2026-05-03 15:02:01 209 446 40378 553 -48 ENROUTE
2026-05-03 15:02:31 209 446 40378 557 -48 ENROUTE
2026-05-03 15:03:01 209 446 40378 561 -48 ENROUTE
2026-05-03 15:03:31 211 446 40388 566 -48 ENROUTE
2026-05-03 15:04:01 210 445 40394 570 -48 ENROUTE
2026-05-03 15:04:31 210 444 40408 575 -48 ENROUTE
2026-05-03 15:05:01 210 444 40418 579 -48 ENROUTE
2026-05-03 15:05:31 210 445 40418 583 -48 ENROUTE
2026-05-03 15:06:01 210 445 40419 588 -48 ENROUTE
2026-05-03 15:06:31 210 445 40420 592 -48 ENROUTE
2026-05-03 15:07:01 210 445 40421 597 -48 ENROUTE
2026-05-03 15:07:31 211 445 40421 601 -48 ENROUTE
2026-05-03 15:08:01 210 445 40441 606 -49 ENROUTE
2026-05-03 15:08:31 210 446 40441 610 -49 ENROUTE
2026-05-03 15:09:01 211 446 40442 615 -49 ENROUTE
2026-05-03 15:09:31 211 447 40443 619 -49 ENROUTE
2026-05-03 15:10:01 211 447 40452 623 -49 ENROUTE
2026-05-03 15:10:31 211 447 40453 628 -49 ENROUTE
2026-05-03 15:11:01 210 447 40479 632 -50 ENROUTE
2026-05-03 15:11:31 210 448 40476 637 -50 ENROUTE
2026-05-03 15:12:01 211 449 40477 641 -50 ENROUTE
2026-05-03 15:12:31 211 450 40478 646 -50 ENROUTE
2026-05-03 15:13:01 211 450 40494 650 -49 ENROUTE
2026-05-03 15:13:31 211 450 40495 655 -49 ENROUTE
2026-05-03 15:14:01 212 451 40497 659 -49 ENROUTE
2026-05-03 15:14:31 212 450 40529 664 -49 ENROUTE
2026-05-03 15:15:01 212 450 40530 668 -49 ENROUTE
2026-05-03 15:15:31 212 450 40531 673 -49 ENROUTE
2026-05-03 15:16:01 214 450 40545 677 -50 ENROUTE
2026-05-03 15:16:31 214 449 40548 682 -50 ENROUTE
2026-05-03 15:17:01 214 453 40550 686 -50 ENROUTE
2026-05-03 15:17:31 212 452 40581 691 -50 ENROUTE
2026-05-03 15:18:01 213 453 40580 695 -50 ENROUTE
2026-05-03 15:18:31 213 454 40580 700 -50 ENROUTE
2026-05-03 15:19:01 214 454 40597 704 -51 ENROUTE
2026-05-03 15:19:31 214 454 40599 709 -51 ENROUTE
2026-05-03 15:20:01 214 454 40600 714 -51 ENROUTE
2026-05-03 15:20:31 214 455 40602 718 -51 ENROUTE
2026-05-03 15:21:01 213 454 40634 723 -51 ENROUTE
2026-05-03 15:21:31 213 455 40633 727 -51 ENROUTE
2026-05-03 15:22:01 214 455 40650 732 -51 ENROUTE
2026-05-03 15:22:31 214 456 40652 736 -51 ENROUTE
2026-05-03 15:23:01 215 456 40653 741 -51 ENROUTE
2026-05-03 15:23:31 215 456 40654 746 -51 ENROUTE
2026-05-03 15:24:01 215 456 40655 750 -51 ENROUTE
2026-05-03 15:24:31 214 455 40710 755 -51 ENROUTE
2026-05-03 15:25:01 214 456 40711 759 -51 ENROUTE
2026-05-03 15:25:31 215 456 40711 764 -51 ENROUTE
2026-05-03 15:26:01 215 457 40712 769 -51 ENROUTE
2026-05-03 15:26:31 215 457 40714 773 -51 ENROUTE
2026-05-03 15:27:01 215 457 40715 778 -51 ENROUTE
2026-05-03 15:27:31 216 457 40730 782 -51 ENROUTE
2026-05-03 15:28:01 215 456 40774 787 -52 ENROUTE
2026-05-03 15:28:31 215 457 40772 792 -52 ENROUTE
2026-05-03 15:29:01 216 458 40772 796 -52 ENROUTE
2026-05-03 15:29:31 216 458 40774 801 -52 ENROUTE
2026-05-03 15:30:01 216 459 40775 805 -52 ENROUTE
2026-05-03 15:30:31 217 458 40797 810 -52 ENROUTE
2026-05-03 15:31:01 217 458 40798 815 -52 ENROUTE
2026-05-03 15:31:31 216 458 40823 819 -52 ENROUTE
2026-05-03 15:32:01 216 458 40832 824 -52 ENROUTE
2026-05-03 15:32:31 217 459 40832 829 -52 ENROUTE
2026-05-03 15:33:01 217 459 40858 833 -52 ENROUTE
2026-05-03 15:33:31 217 459 40859 838 -52 ENROUTE
2026-05-03 15:34:01 217 459 40860 843 -52 ENROUTE
2026-05-03 15:34:31 218 459 40861 847 -52 ENROUTE
2026-05-03 15:35:01 218 459 40862 852 -52 ENROUTE
2026-05-03 15:35:31 218 460 40863 857 -52 ENROUTE
2026-05-03 15:36:01 218 460 40864 861 -52 ENROUTE
2026-05-03 15:36:31 218 460 40864 866 -52 ENROUTE
2026-05-03 15:37:01 218 460 40865 871 -52 ENROUTE
2026-05-03 15:37:31 218 460 40865 875 -52 ENROUTE
2026-05-03 15:38:01 218 460 40866 880 -52 ENROUTE
2026-05-03 15:38:31 218 459 40911 885 -53 CLIMB
2026-05-03 15:39:01 218 459 40923 889 -53 ENROUTE
2026-05-03 15:39:31 218 453 40921 894 -53 ENROUTE
2026-05-03 15:40:01 218 437 40923 899 -53 ENROUTE
2026-05-03 15:40:31 218 420 40926 903 -53 ENROUTE
2026-05-03 15:41:01 218 413 40930 908 -53 ENROUTE
2026-05-03 15:41:31 218 412 40958 913 -53 ENROUTE
2026-05-03 15:42:01 219 412 40959 917 -53 ENROUTE
2026-05-03 15:42:31 219 412 40960 922 -53 ENROUTE
2026-05-03 15:43:01 219 413 40961 927 -53 ENROUTE
2026-05-03 15:43:31 219 412 41006 932 -53 ENROUTE
2026-05-03 15:44:01 219 412 41006 936 -53 ENROUTE
2026-05-03 15:44:31 219 412 41007 941 -53 ENROUTE
2026-05-03 15:45:01 219 412 41007 946 -53 ENROUTE
2026-05-03 15:45:31 219 412 41009 950 -53 ENROUTE
2026-05-03 15:46:01 222 410 41079 955 -54 ENROUTE
2026-05-03 15:46:31 221 410 41082 960 -54 ENROUTE
2026-05-03 15:47:01 221 410 41085 965 -54 ENROUTE
2026-05-03 15:47:31 221 410 41085 969 -54 ENROUTE
2026-05-03 15:48:01 221 409 41119 974 -54 ENROUTE
2026-05-03 15:48:31 222 409 41119 979 -54 ENROUTE
2026-05-03 15:49:01 222 409 41119 984 -54 ENROUTE
2026-05-03 15:49:31 222 409 41120 989 -54 ENROUTE
2026-05-03 15:50:01 222 409 41120 993 -54 ENROUTE
2026-05-03 15:50:31 221 408 41172 998 -55 ENROUTE
2026-05-03 15:51:01 221 409 41172 1003 -55 ENROUTE
2026-05-03 15:51:31 221 409 41173 1008 -55 ENROUTE
2026-05-03 15:52:01 222 410 41174 1013 -55 ENROUTE
2026-05-03 15:52:31 222 423 41215 1017 -55 ENROUTE
2026-05-03 15:53:01 222 442 41219 1022 -55 ENROUTE
2026-05-03 15:53:31 222 455 41221 1027 -55 ENROUTE
2026-05-03 15:54:01 222 455 41224 1032 -55 ENROUTE
2026-05-03 15:54:31 225 454 41264 1037 -55 ENROUTE
2026-05-03 15:55:01 225 453 41268 1041 -55 ENROUTE
2026-05-03 15:55:31 224 452 41306 1046 -56 ENROUTE
2026-05-03 15:56:01 224 452 41307 1051 -56 ENROUTE
2026-05-03 15:56:31 224 452 41306 1056 -56 ENROUTE
2026-05-03 15:57:01 224 451 41306 1061 -56 ENROUTE
2026-05-03 15:57:31 224 451 41305 1065 -56 ENROUTE
2026-05-03 15:58:01 224 449 41332 1070 -56 ENROUTE
2026-05-03 15:58:31 223 448 41339 1075 -56 ENROUTE
2026-05-03 15:59:01 223 447 41377 1080 -56 ENROUTE
2026-05-03 15:59:31 223 447 41377 1085 -56 ENROUTE
2026-05-03 16:00:01 223 447 41378 1089 -56 ENROUTE
2026-05-03 16:00:31 223 447 41384 1094 -56 ENROUTE
2026-05-03 16:01:01 223 447 41393 1099 -57 ENROUTE
2026-05-03 16:01:31 223 447 41394 1104 -57 ENROUTE
2026-05-03 16:02:01 223 447 41395 1109 -57 ENROUTE
2026-05-03 16:02:31 223 447 41394 1113 -57 ENROUTE
2026-05-03 16:03:01 223 447 41395 1118 -57 ENROUTE
2026-05-03 16:03:31 223 447 41395 1123 -57 ENROUTE
2026-05-03 16:04:01 223 447 41395 1128 -57 ENROUTE
2026-05-03 16:04:31 223 447 41406 1133 -57 ENROUTE
2026-05-03 16:05:01 224 447 41443 1138 -57 ENROUTE
2026-05-03 16:05:31 223 446 41452 1142 -57 ENROUTE
2026-05-03 16:06:01 224 447 41448 1147 -57 ENROUTE
2026-05-03 16:06:31 223 446 41449 1152 -57 ENROUTE
2026-05-03 16:07:01 223 446 41449 1157 -57 ENROUTE
2026-05-03 16:07:31 223 445 41464 1162 -57 ENROUTE
2026-05-03 16:08:01 223 445 41469 1167 -57 ENROUTE
2026-05-03 16:08:31 222 444 41503 1171 -57 ENROUTE
2026-05-03 16:09:01 222 444 41502 1176 -57 ENROUTE
2026-05-03 16:09:31 223 444 41502 1181 -57 ENROUTE
2026-05-03 16:10:01 223 445 41503 1186 -57 ENROUTE
2026-05-03 16:10:31 223 445 41503 1191 -57 ENROUTE
2026-05-03 16:11:01 223 443 41550 1195 -56 ENROUTE
2026-05-03 16:11:31 222 442 41612 1200 -56 ENROUTE
2026-05-03 16:12:01 222 442 41611 1205 -56 ENROUTE
2026-05-03 16:12:31 222 443 41610 1210 -56 ENROUTE
2026-05-03 16:13:01 222 443 41611 1215 -56 ENROUTE
2026-05-03 16:13:31 222 443 41612 1220 -56 ENROUTE
2026-05-03 16:14:01 223 442 41648 1224 -56 ENROUTE
2026-05-03 16:14:31 222 441 41696 1229 -56 ENROUTE
2026-05-03 16:15:01 222 441 41695 1234 -56 ENROUTE
2026-05-03 16:15:31 222 441 41696 1239 -56 ENROUTE
2026-05-03 16:16:01 222 463 41697 1244 -56 ENROUTE
2026-05-03 16:16:31 222 490 41699 1248 -56 ENROUTE
2026-05-03 16:17:01 222 488 41703 1253 -56 ENROUTE
2026-05-03 16:17:31 222 477 41706 1258 -56 ENROUTE
2026-05-03 16:18:01 222 486 41709 1263 -56 ENROUTE
2026-05-03 16:18:31 222 481 41710 1268 -56 ENROUTE
2026-05-03 16:19:01 224 482 41753 1273 -55 ENROUTE
2026-05-03 16:19:31 224 481 41756 1277 -55 ENROUTE
2026-05-03 16:20:01 223 480 41794 1282 -56 ENROUTE
2026-05-03 16:20:31 223 480 41794 1287 -56 ENROUTE
2026-05-03 16:21:01 223 479 41823 1292 -56 ENROUTE
2026-05-03 16:21:31 223 479 41823 1297 -56 ENROUTE
2026-05-03 16:22:01 223 479 41823 1301 -56 ENROUTE
2026-05-03 16:22:31 223 479 41823 1306 -56 ENROUTE
2026-05-03 16:23:01 223 478 41843 1311 -56 ENROUTE
2026-05-03 16:23:31 223 478 41844 1316 -56 ENROUTE
2026-05-03 16:24:01 223 478 41845 1321 -56 ENROUTE
2026-05-03 16:24:31 223 478 41845 1326 -56 ENROUTE
2026-05-03 16:25:01 223 478 41855 1330 -56 ENROUTE
2026-05-03 16:25:31 223 477 41877 1335 -56 ENROUTE
2026-05-03 16:26:01 223 477 41877 1340 -56 ENROUTE
2026-05-03 16:26:31 223 477 41877 1345 -56 ENROUTE
2026-05-03 16:27:01 223 476 41912 1350 -56 ENROUTE
2026-05-03 16:27:31 223 475 41939 1354 -56 ENROUTE
2026-05-03 16:28:01 223 475 41939 1359 -56 ENROUTE
2026-05-03 16:28:31 223 475 41939 1364 -56 ENROUTE
2026-05-03 16:29:01 223 457 41936 1369 -56 ENROUTE
2026-05-03 16:29:31 223 446 41968 1374 -57 ENROUTE
2026-05-03 16:30:01 223 459 41970 1379 -57 ENROUTE
2026-05-03 16:30:31 223 454 41971 1383 -57 ENROUTE
2026-05-03 16:31:01 223 456 41973 1388 -57 ENROUTE
2026-05-03 16:31:31 223 455 41974 1393 -57 ENROUTE
2026-05-03 16:32:01 222 454 42016 1398 -57 ENROUTE
2026-05-03 16:32:31 223 455 42016 1403 -57 ENROUTE
2026-05-03 16:33:01 223 454 42016 1407 -57 ENROUTE
2026-05-03 16:33:31 223 455 42016 1412 -57 ENROUTE
2026-05-03 16:34:01 223 455 42017 1417 -57 ENROUTE
2026-05-03 16:34:31 223 454 42037 1422 -57 ENROUTE
2026-05-03 16:35:01 223 454 42038 1427 -57 ENROUTE
2026-05-03 16:35:31 223 454 42038 1432 -57 ENROUTE
2026-05-03 16:36:01 223 454 42039 1436 -57 ENROUTE
2026-05-03 16:36:31 223 453 42081 1441 -57 ENROUTE
2026-05-03 16:37:01 223 452 42104 1446 -57 ENROUTE
2026-05-03 16:37:31 223 452 42104 1451 -57 ENROUTE
2026-05-03 16:38:01 223 453 42104 1456 -57 ENROUTE
2026-05-03 16:38:31 223 452 42104 1460 -57 ENROUTE
2026-05-03 16:39:01 223 452 42105 1465 -57 ENROUTE
2026-05-03 16:39:31 223 452 42105 1470 -57 ENROUTE
2026-05-03 16:40:01 223 452 42105 1475 -57 ENROUTE
2026-05-03 16:40:31 223 452 42125 1480 -57 ENROUTE
2026-05-03 16:41:01 223 452 42131 1485 -57 ENROUTE
2026-05-03 16:41:31 223 452 42131 1489 -57 ENROUTE
2026-05-03 16:42:01 223 451 42165 1494 -57 ENROUTE
2026-05-03 16:42:31 223 451 42165 1499 -57 ENROUTE
2026-05-03 16:43:01 223 451 42166 1504 -57 ENROUTE
2026-05-03 16:43:31 223 451 42166 1509 -57 ENROUTE
2026-05-03 16:44:01 223 451 42166 1514 -57 ENROUTE
2026-05-03 16:44:31 224 450 42185 1518 -57 ENROUTE
2026-05-03 16:45:01 224 450 42185 1523 -57 ENROUTE
2026-05-03 16:45:31 224 450 42185 1528 -57 ENROUTE
2026-05-03 16:46:01 223 450 42185 1533 -57 ENROUTE
2026-05-03 16:46:31 223 450 42185 1538 -57 ENROUTE
2026-05-03 16:47:01 224 449 42202 1542 -57 ENROUTE
2026-05-03 16:47:31 224 449 42202 1547 -57 ENROUTE
2026-05-03 16:48:01 224 449 42202 1552 -57 ENROUTE
2026-05-03 16:48:31 223 449 42202 1557 -57 ENROUTE
2026-05-03 16:49:01 223 448 42227 1562 -57 ENROUTE
2026-05-03 16:49:31 223 447 42247 1567 -57 ENROUTE
2026-05-03 16:50:01 223 447 42246 1571 -57 ENROUTE
2026-05-03 16:50:31 223 448 42246 1576 -57 ENROUTE
2026-05-03 16:51:01 223 448 42247 1581 -57 ENROUTE
2026-05-03 16:51:31 223 448 42247 1586 -57 ENROUTE
2026-05-03 16:52:01 223 447 42265 1591 -57 ENROUTE
2026-05-03 16:52:31 223 447 42266 1595 -57 ENROUTE
2026-05-03 16:53:01 224 447 42266 1600 -57 ENROUTE
2026-05-03 16:53:31 224 447 42287 1605 -57 ENROUTE
2026-05-03 16:54:01 224 447 42286 1610 -57 ENROUTE
2026-05-03 16:54:31 223 447 42289 1615 -57 ENROUTE
2026-05-03 16:55:01 224 448 42289 1620 -57 ENROUTE
2026-05-03 16:55:31 224 448 42291 1624 -57 ENROUTE
2026-05-03 16:56:01 224 448 42292 1629 -57 ENROUTE
2026-05-03 16:56:31 219 438 42197 1633 -57 DESCENT
2026-05-03 16:57:01 222 439 41054 1635 -55 DESCENT
2026-05-03 16:57:31 226 439 39839 1637 -52 DESCENT
2026-05-03 16:58:01 229 437 38718 1639 -49 DESCENT
2026-05-03 16:58:31 232 435 37581 1641 -46 DESCENT
2026-05-03 16:59:01 236 436 36384 1643 -44 DESCENT
2026-05-03 16:59:31 240 437 35129 1645 -41 DESCENT
2026-05-03 17:00:01 247 431 33960 1648 -38 DESCENT
2026-05-03 17:00:31 257 433 32808 1651 -36 DESCENT
2026-05-03 17:01:01 269 444 31572 1656 -34 DESCENT
2026-05-03 17:01:31 280 450 30369 1660 -31 DESCENT
2026-05-03 17:02:01 287 452 29232 1665 -28 DESCENT
2026-05-03 17:02:31 291 448 28035 1670 -26 DESCENT
2026-05-03 17:03:01 289 437 26815 1673 -24 DESCENT
2026-05-03 17:03:31 289 430 25571 1677 -21 DESCENT
2026-05-03 17:04:01 292 424 24297 1681 -19 DESCENT
2026-05-03 17:04:31 291 416 23200 1685 -17 DESCENT
2026-05-03 17:05:01 292 409 22122 1689 -14 DESCENT
2026-05-03 17:05:31 300 411 21004 1694 -12 DESCENT
2026-05-03 17:06:01 296 399 19856 1698 -10 DESCENT
2026-05-03 17:06:31 294 389 18712 1702 -8 DESCENT
2026-05-03 17:07:01 289 379 17709 1706 -6 DESCENT
2026-05-03 17:07:31 288 373 16704 1710 -4 DESCENT
2026-05-03 17:08:01 288 370 15681 1713 -1 DESCENT
2026-05-03 17:08:31 284 361 14645 1717 0 DESCENT
2026-05-03 17:09:01 262 329 13802 1719 2 DESCENT
2026-05-03 17:09:31 261 326 12939 1721 5 DESCENT
2026-05-03 17:10:01 257 318 12062 1724 7 DESCENT
2026-05-03 17:10:31 249 306 11194 1725 9 DESCENT
2026-05-03 17:11:01 239 292 10339 1727 11 DESCENT
2026-05-03 17:11:31 233 283 9548 1728 13 DESCENT
2026-05-03 17:12:01 236 284 8781 1730 15 DESCENT
2026-05-03 17:12:31 239 286 7994 1732 18 DESCENT
2026-05-03 17:13:01 242 288 7183 1734 20 DESCENT
2026-05-03 17:13:31 246 289 6354 1735 22 DESCENT
2026-05-03 17:14:01 238 276 5560 1737 24 DESCENT
2026-05-03 17:14:31 233 266 4793 1738 26 DESCENT
2026-05-03 17:15:01 231 260 4055 1739 28 DESCENT
2026-05-03 17:15:31 193 214 3359 1741 30 DESCENT
2026-05-03 17:16:01 138 154 2843 1744 32 DESCENT
2026-05-03 17:16:31 129 141 2426 1748 32 DESCENT
2026-05-03 17:17:01 126 137 2048 1753 33 APPROACH
2026-05-03 17:17:31 125 133 1689 1757 33 APPROACH
2026-05-03 17:18:01 137 143 1324 1763 32 APPROACH
2026-05-03 17:18:31 140 143 930 1768 31 ON FINAL
2026-05-03 17:19:01 130 132 521 1772 31 ON FINAL
2026-05-03 17:19:31 127 127 144 1776 32 ON FINAL
2026-05-03 17:20:01 71 68 21 1778 32 ON FINAL
2026-05-03 17:20:31 5 11 20 1780 32 TAXI TO APRON
2026-05-03 17:21:01 16 22 21 1781 32 TAXI TO APRON
2026-05-03 17:21:31 18 14 21 1782 32 TAXI TO APRON
2026-05-03 17:22:01 3 0 21 1783 32 TAXI TO APRON
2026-05-03 17:22:31 2 0 21 1784 32 TAXI TO APRON
2026-05-03 17:23:01 2 0 21 1786 32 TAXI TO APRON
2026-05-03 17:23:31 4 0 21 1786 32 TAXI TO APRON
2026-05-03 17:24:01 4 0 21 1786 32 TAXI TO APRON
2026-05-03 17:24:31 2 0 21 1786 32 TAXI TO APRON
2026-05-03 17:25:01 2 0 21 1786 32 TAXI TO APRON
2026-05-03 17:25:31 3 0 21 1786 32 TAXI TO APRON
2026-05-03 17:26:01 2 0 21 1786 32 TAXI TO APRON
2026-05-03 17:26:31 4 0 21 1786 32 TAXI TO APRON
2026-05-03 17:27:01 4 0 21 1786 32 TAXI TO APRON
2026-05-03 17:27:31 4 0 21 1786 32 TAXI TO APRON
2026-05-03 17:28:01 3 0 21 1786 32 TAXI TO APRON
2026-05-03 17:28:31 2 0 21 1786 32 TAXI TO APRON
2026-05-03 17:29:01 4 0 21 1786 32 TAXI TO APRON
2026-05-03 17:29:31 5 0 21 1786 32 TAXI TO APRON
2026-05-03 17:30:01 3 0 21 1786 32 TAXI TO APRON
2026-05-03 17:30:31 4 0 21 1786 32 TAXI TO APRON
2026-05-03 17:31:01 3 0 21 1786 32 TAXI TO APRON
2026-05-03 17:31:31 2 0 21 1786 32 TAXI TO APRON
2026-05-03 17:32:01 3 0 21 1786 32 TAXI TO APRON
2026-05-03 17:32:31 4 0 21 1786 32 TAXI TO APRON
2026-05-03 17:33:01 4 0 21 1786 32 TAXI TO APRON
2026-05-03 17:33:31 3 0 21 1786 32 TAXI TO APRON
2026-05-03 17:34:01 2 0 21 1786 32 TAXI TO APRON
2026-05-03 17:34:31 3 0 21 1786 32 TAXI TO APRON
2026-05-03 17:35:01 2 0 21 1786 32 TAXI TO APRON
2026-05-03 17:35:31 3 0 21 1786 32 TAXI TO APRON
2026-05-03 17:36:01 4 0 21 1786 32 TAXI TO APRON
2026-05-03 17:36:31 4 0 21 1786 32 TAXI TO APRON
2026-05-03 17:37:01 2 0 21 1786 32 TAXI TO APRON
2026-05-03 17:37:31 2 0 21 1786 32 TAXI TO APRON
2026-05-03 17:38:01 4 0 21 1786 32 TAXI TO APRON
2026-05-03 17:38:31 4 0 21 1786 32 TAXI TO APRON
2026-05-03 17:39:01 3 0 21 1786 32 TAXI TO APRON
2026-05-03 17:39:31 4 0 21 1786 32 TAXI TO APRON
2026-05-03 17:40:01 2 0 21 1786 32 TAXI TO APRON
2026-05-03 17:40:31 2 0 21 1786 32 TAXI TO APRON
2026-05-03 17:41:01 2 0 21 1786 32 TAXI TO APRON
2026-05-03 17:41:31 3 0 21 1786 32 TAXI TO APRON
2026-05-03 17:42:01 3 0 21 1786 32 TAXI TO APRON
2026-05-03 17:42:31 2 0 21 1786 32 TAXI TO APRON
2026-05-03 17:43:01 1 0 21 1786 32 TAXI TO APRON
2026-05-03 17:43:31 3 0 21 1786 32 TAXI TO APRON
2026-05-03 17:44:01 2 0 21 1786 32 TAXI TO APRON
2026-05-03 17:44:31 2 0 21 1786 32 TAXI TO APRON
2026-05-03 17:45:01 3 0 21 1786 32 TAXI TO APRON
2026-05-03 17:45:31 3 0 21 1786 32 TAXI TO APRON
2026-05-03 17:46:01 2 0 21 1786 32 TAXI TO APRON
2026-05-03 17:46:31 2 0 21 1786 32 TAXI TO APRON
2026-05-03 17:47:01 3 0 21 1786 32 TAXI TO APRON
2026-05-03 17:47:31 3 0 21 1786 32 TAXI TO APRON
2026-05-03 17:48:01 3 0 21 1786 32 TAXI TO APRON
2026-05-03 17:48:31 3 0 21 1786 32 TAXI TO APRON
2026-05-03 17:49:01 2 0 21 1786 32 TAXI TO APRON
2026-05-03 17:49:31 2 0 21 1786 32 TAXI TO APRON
2026-05-03 17:50:01 2 0 21 1786 32 TAXI TO APRON
2026-05-03 17:50:31 3 0 21 1786 32 TAXI TO APRON
2026-05-03 17:51:01 3 0 21 1786 32 TAXI TO APRON
2026-05-03 17:51:31 2 0 21 1786 32 TAXI TO APRON
2026-05-03 17:52:01 2 0 21 1786 32 TAXI TO APRON
2026-05-03 17:52:31 3 0 21 1786 32 TAXI TO APRON
2026-05-03 17:53:01 2 0 21 1786 32 TAXI TO APRON
2026-05-03 17:53:31 3 0 21 1786 32 TAXI TO APRON
2026-05-03 17:54:01 3 0 21 1786 32 TAXI TO APRON
2026-05-03 17:54:31 2 0 21 1786 32 TAXI TO APRON
2026-05-03 17:55:01 1 0 21 1786 32 TAXI TO APRON
2026-05-03 17:55:31 1 0 21 1786 32 TAXI TO APRON
2026-05-03 17:56:01 2 0 21 1786 32 TAXI TO APRON
2026-05-03 17:56:31 2 0 21 1786 32 TAXI TO APRON
2026-05-03 17:57:01 2 0 21 1786 32 TAXI TO APRON
2026-05-03 17:57:31 2 0 21 1786 32 TAXI TO APRON
2026-05-03 17:58:01 2 0 21 1786 32 TAXI TO APRON
2026-05-03 17:58:31 1 0 21 1786 32 TAXI TO APRON
2026-05-03 17:59:01 1 0 21 1786 32 TAXI TO APRON
2026-05-03 17:59:31 2 0 21 1786 32 TAXI TO APRON
2026-05-03 18:00:01 2 0 21 1786 32 TAXI TO APRON
2026-05-03 18:00:31 1 0 21 1786 32 TAXI TO APRON
2026-05-03 18:01:01 1 0 21 1786 32 TAXI TO APRON
2026-05-03 18:01:31 1 0 21 1786 32 TAXI TO APRON
2026-05-03 18:02:01 1 0 21 1786 32 TAXI TO APRON
2026-05-03 18:02:31 2 0 21 1786 32 TAXI TO APRON
2026-05-03 18:03:01 2 0 21 1786 32 TAXI TO APRON
2026-05-03 18:03:31 2 0 21 1786 32 TAXI TO APRON
2026-05-03 18:04:01 1 0 21 1786 32 TAXI TO APRON
2026-05-03 18:04:31 1 0 21 1786 32 TAXI TO APRON
2026-05-03 18:05:01 2 0 21 1786 32 TAXI TO APRON
2026-05-03 18:05:31 2 0 21 1786 32 TAXI TO APRON
2026-05-03 18:06:01 1 0 21 1786 32 TAXI TO APRON
2026-05-03 18:06:31 2 0 21 1786 32 TAXI TO APRON
2026-05-03 18:07:01 2 0 21 1786 32 TAXI TO APRON
2026-05-03 18:07:31 1 0 21 1786 32 TAXI TO APRON
2026-05-03 18:08:01 2 0 21 1786 32 TAXI TO APRON
2026-05-03 18:08:31 2 0 21 1786 32 TAXI TO APRON
2026-05-03 18:09:01 1 0 21 1786 32 TAXI TO APRON
2026-05-03 18:09:31 2 0 21 1786 32 TAXI TO APRON
2026-05-03 18:10:01 1 0 21 1786 32 TAXI TO APRON
2026-05-03 18:10:31 1 0 21 1786 32 TAXI TO APRON
2026-05-03 18:11:01 1 0 21 1786 32 TAXI TO APRON
2026-05-03 18:11:31 1 0 21 1786 32 TAXI TO APRON
2026-05-03 18:12:01 2 0 21 1786 32 TAXI TO APRON
2026-05-03 18:12:31 2 0 21 1786 32 TAXI TO APRON
2026-05-03 18:13:01 1 0 21 1786 32 TAXI TO APRON
2026-05-03 18:13:31 1 0 21 1786 32 TAXI TO APRON
2026-05-03 18:14:01 2 0 21 1786 32 TAXI TO APRON
2026-05-03 18:14:31 2 0 21 1786 32 TAXI TO APRON
2026-05-03 18:15:01 2 0 21 1786 32 TAXI TO APRON
2026-05-03 18:15:31 2 0 21 1786 32 TAXI TO APRON
2026-05-03 18:16:01 1 0 21 1786 32 TAXI TO APRON
2026-05-03 18:16:31 1 0 21 1786 32 TAXI TO APRON
2026-05-03 18:17:01 2 0 21 1786 32 TAXI TO APRON
2026-05-03 18:17:31 2 0 21 1786 32 TAXI TO APRON
2026-05-03 18:18:01 2 0 21 1786 32 TAXI TO APRON
2026-05-03 18:18:31 2 0 21 1786 32 TAXI TO APRON
2026-05-03 18:19:01 1 0 21 1786 32 TAXI TO APRON
2026-05-03 18:19:31 1 0 21 1786 32 TAXI TO APRON
2026-05-03 18:20:01 1 0 21 1786 32 TAXI TO APRON
2026-05-03 18:20:31 1 0 21 1786 32 TAXI TO APRON
2026-05-03 18:21:01 2 0 21 1786 32 TAXI TO APRON
2026-05-03 18:21:31 1 0 21 1786 32 TAXI TO APRON
2026-05-03 18:22:01 1 0 21 1786 32 TAXI TO APRON
2026-05-03 18:22:31 2 0 21 1786 32 TAXI TO APRON
2026-05-03 18:23:01 1 0 21 1786 32 TAXI TO APRON
2026-05-03 18:23:31 2 0 21 1786 32 TAXI TO APRON
2026-05-03 18:24:01 2 0 21 1786 32 TAXI TO APRON
2026-05-03 18:24:31 2 0 21 1786 32 TAXI TO APRON
2026-05-03 18:25:01 1 0 21 1786 32 TAXI TO APRON
2026-05-03 18:25:31 1 0 21 1786 32 TAXI TO APRON
2026-05-03 18:26:01 1 0 21 1786 32 TAXI TO APRON
2026-05-03 18:26:31 2 0 21 1786 32 TAXI TO APRON
2026-05-03 18:27:01 2 0 21 1786 32 TAXI TO APRON
2026-05-03 18:27:31 1 0 21 1786 32 TAXI TO APRON
2026-05-03 18:28:01 1 0 21 1786 32 TAXI TO APRON
2026-05-03 18:28:31 1 0 21 1786 32 TAXI TO APRON
2026-05-03 18:29:01 1 0 21 1786 32 TAXI TO APRON
2026-05-03 18:29:31 2 0 21 1786 32 TAXI TO APRON
2026-05-03 18:30:01 2 0 21 1786 32 TAXI TO APRON
2026-05-03 18:30:31 1 0 21 1786 32 TAXI TO APRON
2026-05-03 18:31:01 1 0 21 1786 32 TAXI TO APRON
2026-05-03 18:31:31 1 0 21 1786 32 TAXI TO APRON
2026-05-03 18:32:01 1 0 21 1786 32 TAXI TO APRON
2026-05-03 18:32:31 2 0 21 1786 32 TAXI TO APRON
2026-05-03 18:33:01 2 0 21 1786 32 TAXI TO APRON
2026-05-03 18:33:31 2 0 21 1786 32 TAXI TO APRON
2026-05-03 18:34:01 2 0 21 1786 32 TAXI TO APRON
2026-05-03 18:34:31 1 0 21 1786 32 TAXI TO APRON
2026-05-03 18:35:01 2 0 21 1786 32 TAXI TO APRON
2026-05-03 18:35:31 2 0 21 1786 32 TAXI TO APRON
2026-05-03 18:36:01 1 0 21 1786 32 TAXI TO APRON
2026-05-03 18:36:31 2 0 21 1786 32 TAXI TO APRON
2026-05-03 18:37:01 1 0 21 1786 32 TAXI TO APRON
2026-05-03 18:37:31 1 0 21 1786 32 TAXI TO APRON
2026-05-03 18:38:01 1 0 21 1786 32 TAXI TO APRON
2026-05-03 18:38:31 2 0 21 1786 32 TAXI TO APRON
2026-05-03 18:39:01 2 0 21 1786 32 TAXI TO APRON
2026-05-03 18:39:31 1 0 21 1786 32 TAXI TO APRON
2026-05-03 18:40:01 1 0 21 1786 32 TAXI TO APRON
2026-05-03 18:40:31 1 0 21 1786 32 TAXI TO APRON
2026-05-03 18:41:01 1 0 21 1786 32 TAXI TO APRON
2026-05-03 18:41:31 2 0 21 1786 32 TAXI TO APRON
2026-05-03 18:42:01 2 0 21 1786 32 TAXI TO APRON
2026-05-03 18:42:31 2 0 21 1786 32 TAXI TO APRON
2026-05-03 18:43:01 1 0 21 1786 32 TAXI TO APRON
2026-05-03 18:43:31 1 0 21 1786 32 TAXI TO APRON
2026-05-03 18:44:01 2 0 21 1786 32 TAXI TO APRON
2026-05-03 18:44:31 2 0 21 1786 32 TAXI TO APRON
2026-05-03 18:45:01 1 0 21 1786 32 TAXI TO APRON
2026-05-03 18:45:31 2 0 21 1786 32 TAXI TO APRON
2026-05-03 18:46:01 1 0 21 1786 32 TAXI TO APRON
2026-05-03 18:46:31 1 0 21 1786 32 TAXI TO APRON
2026-05-03 18:47:01 1 0 21 1786 32 TAXI TO APRON
2026-05-03 18:47:31 2 0 21 1786 32 TAXI TO APRON
2026-05-03 18:48:01 2 0 21 1786 32 TAXI TO APRON
2026-05-03 18:48:31 1 0 21 1786 32 TAXI TO APRON
2026-05-03 18:49:01 1 0 21 1786 32 TAXI TO APRON
2026-05-03 18:49:31 2 0 21 1786 32 TAXI TO APRON
2026-05-03 18:50:01 1 0 21 1786 32 TAXI TO APRON
2026-05-03 18:50:31 2 0 21 1786 32 TAXI TO APRON
2026-05-03 18:51:01 2 0 21 1786 32 TAXI TO APRON
2026-05-03 18:51:31 2 0 21 1786 32 TAXI TO APRON
2026-05-03 18:52:01 1 0 21 1786 32 TAXI TO APRON
2026-05-03 18:52:31 1 0 21 1786 32 TAXI TO APRON
2026-05-03 18:53:01 2 0 21 1786 32 TAXI TO APRON
2026-05-03 18:53:31 2 0 21 1786 32 TAXI TO APRON
2026-05-03 18:54:01 2 0 21 1786 32 TAXI TO APRON
2026-05-03 18:54:31 2 0 21 1786 32 TAXI TO APRON
2026-05-03 18:55:01 1 0 21 1786 32 TAXI TO APRON
2026-05-03 18:55:31 1 0 21 1786 32 TAXI TO APRON
2026-05-03 18:56:01 1 0 21 1786 32 TAXI TO APRON
2026-05-03 18:56:31 2 0 21 1786 32 TAXI TO APRON
2026-05-03 18:57:01 2 0 21 1786 32 TAXI TO APRON
2026-05-03 18:57:31 1 0 21 1786 32 TAXI TO APRON
2026-05-03 18:58:01 1 0 21 1786 32 TAXI TO APRON
2026-05-03 18:58:31 2 0 21 1786 32 TAXI TO APRON
2026-05-03 18:59:01 1 0 21 1786 32 TAXI TO APRON
2026-05-03 18:59:31 2 0 21 1786 32 TAXI TO APRON
2026-05-03 19:00:01 3 0 21 1786 32 TAXI TO APRON
2026-05-03 19:00:31 3 0 21 1786 32 TAXI TO APRON
2026-05-03 19:01:01 1 0 21 1786 32 TAXI TO APRON
2026-05-03 19:01:31 2 0 21 1786 32 TAXI TO APRON
2026-05-03 19:02:01 2 0 21 1786 32 TAXI TO APRON
2026-05-03 19:02:31 3 0 21 1786 32 TAXI TO APRON
2026-05-03 19:03:01 2 0 21 1786 32 TAXI TO APRON
2026-05-03 19:03:31 3 0 21 1786 32 TAXI TO APRON
2026-05-03 19:04:01 2 0 21 1786 32 TAXI TO APRON
2026-05-03 19:04:31 1 0 21 1786 32 TAXI TO APRON
2026-05-03 19:05:01 1 0 21 1786 32 TAXI TO APRON
2026-05-03 19:05:31 3 0 21 1786 32 TAXI TO APRON
2026-05-03 19:06:01 3 0 21 1786 32 TAXI TO APRON
2026-05-03 19:06:31 1 0 21 1786 32 TAXI TO APRON
2026-05-03 19:07:01 1 0 21 1786 32 TAXI TO APRON
2026-05-03 19:07:31 2 0 21 1786 32 TAXI TO APRON
2026-05-03 19:08:01 1 0 21 1786 32 TAXI TO APRON
2026-05-03 19:08:31 3 0 21 1786 32 TAXI TO APRON
2026-05-03 19:09:01 3 0 21 1786 32 TAXI TO APRON
2026-05-03 19:09:31 3 0 21 1786 32 TAXI TO APRON
2026-05-03 19:10:01 2 0 21 1786 32 TAXI TO APRON
2026-05-03 19:10:31 1 0 21 1786 32 TAXI TO APRON
2026-05-03 19:11:01 2 0 21 1786 32 TAXI TO APRON
2026-05-03 19:11:31 3 0 21 1786 32 TAXI TO APRON
2026-05-03 19:12:01 2 0 21 1786 32 TAXI TO APRON
2026-05-03 19:12:31 3 0 21 1786 32 TAXI TO APRON
2026-05-03 19:13:01 2 0 21 1786 32 TAXI TO APRON
2026-05-03 19:13:31 1 0 21 1786 32 TAXI TO APRON
2026-05-03 19:14:01 2 0 21 1786 32 TAXI TO APRON
2026-05-03 19:14:31 3 0 21 1786 32 TAXI TO APRON
2026-05-03 19:15:01 2 0 21 1786 32 TAXI TO APRON
2026-05-03 19:15:31 2 0 21 1786 32 TAXI TO APRON
2026-05-03 19:16:01 1 0 21 1786 32 TAXI TO APRON
2026-05-03 19:16:31 2 0 21 1786 32 TAXI TO APRON
2026-05-03 19:17:01 1 0 21 1786 32 TAXI TO APRON
2026-05-03 19:17:31 2 0 21 1786 32 TAXI TO APRON
2026-05-03 19:18:01 3 0 21 1786 32 TAXI TO APRON
2026-05-03 19:18:31 3 0 21 1786 32 TAXI TO APRON
2026-05-03 19:19:01 1 0 21 1786 32 TAXI TO APRON
2026-05-03 19:19:31 1 0 21 1786 32 TAXI TO APRON
2026-05-03 19:20:01 3 0 21 1786 32 TAXI TO APRON
2026-05-03 19:20:31 3 0 21 1786 32 TAXI TO APRON
2026-05-03 19:21:01 2 0 21 1786 32 TAXI TO APRON
2026-05-03 19:21:31 3 0 21 1786 32 TAXI TO APRON
2026-05-03 19:22:01 2 0 21 1786 32 TAXI TO APRON
2026-05-03 19:22:31 1 0 21 1786 32 TAXI TO APRON
2026-05-03 19:23:01 2 0 21 1786 32 TAXI TO APRON
2026-05-03 19:23:31 3 0 21 1786 32 TAXI TO APRON
2026-05-03 19:24:01 2 0 21 1786 32 TAXI TO APRON
2026-05-03 19:24:31 2 0 21 1786 32 TAXI TO APRON
2026-05-03 19:25:01 1 0 21 1786 32 TAXI TO APRON
2026-05-03 19:25:31 2 0 21 1786 32 TAXI TO APRON
2026-05-03 19:26:01 2 0 21 1786 32 TAXI TO APRON
2026-05-03 19:26:31 2 0 21 1786 32 TAXI TO APRON
2026-05-03 19:27:01 3 0 21 1786 32 TAXI TO APRON
2026-05-03 19:27:31 3 0 21 1786 32 TAXI TO APRON
2026-05-03 19:28:01 1 0 21 1786 32 TAXI TO APRON
2026-05-03 19:28:31 2 0 21 1786 32 TAXI TO APRON
2026-05-03 19:29:01 3 0 21 1786 32 TAXI TO APRON
2026-05-03 19:29:31 3 0 21 1786 32 TAXI TO APRON
2026-05-03 19:30:01 3 0 21 1786 32 TAXI TO APRON
2026-05-03 19:30:31 3 0 21 1786 32 TAXI TO APRON
2026-05-03 19:31:01 2 0 21 1786 32 TAXI TO APRON
2026-05-03 19:31:31 2 0 21 1786 32 TAXI TO APRON
2026-05-03 19:32:01 2 0 21 1786 32 TAXI TO APRON
2026-05-03 19:32:31 3 0 21 1786 32 TAXI TO APRON
2026-05-03 19:33:01 3 0 21 1786 32 TAXI TO APRON
2026-05-03 19:33:31 2 0 21 1786 32 TAXI TO APRON
2026-05-03 19:34:01 1 0 21 1786 32 TAXI TO APRON
2026-05-03 19:34:31 3 0 21 1786 32 TAXI TO APRON
2026-05-03 19:35:01 1 0 21 1786 32 TAXI TO APRON
2026-05-03 19:35:31 2 0 21 1786 32 TAXI TO APRON
2026-05-03 19:36:01 3 0 21 1786 32 TAXI TO APRON
2026-05-03 19:36:31 2 0 21 1786 32 TAXI TO APRON
2026-05-03 19:37:01 2 0 21 1786 32 TAXI TO APRON
2026-05-03 19:37:31 3 0 21 1786 32 TAXI TO APRON
2026-05-03 19:38:01 2 0 21 1786 32 TAXI TO APRON
2026-05-03 19:38:31 3 0 21 1786 32 TAXI TO APRON
2026-05-03 19:39:01 3 0 21 1786 32 TAXI TO APRON
2026-05-03 19:39:31 3 0 21 1786 32 TAXI TO APRON
2026-05-03 19:40:01 3 0 21 1786 32 TAXI TO APRON
2026-05-03 19:40:31 2 0 21 1786 31 TAXI TO APRON
2026-05-03 19:41:01 2 0 21 1786 31 TAXI TO APRON
2026-05-03 19:41:31 3 0 21 1786 31 TAXI TO APRON
2026-05-03 19:42:01 3 0 21 1786 31 TAXI TO APRON
2026-05-03 19:42:31 2 0 21 1786 31 TAXI TO APRON
2026-05-03 19:43:01 2 0 21 1786 31 TAXI TO APRON
2026-05-03 19:43:31 2 0 21 1786 31 TAXI TO APRON
2026-05-03 19:44:01 2 0 21 1786 31 TAXI TO APRON
2026-05-03 19:44:31 3 0 21 1786 31 TAXI TO APRON
2026-05-03 19:45:01 3 0 21 1786 31 TAXI TO APRON
2026-05-03 19:45:31 2 0 21 1786 31 TAXI TO APRON
2026-05-03 19:46:01 2 0 21 1786 31 TAXI TO APRON
2026-05-03 19:46:31 2 0 21 1786 31 TAXI TO APRON
2026-05-03 19:47:01 2 0 21 1786 31 TAXI TO APRON
2026-05-03 19:47:31 3 0 21 1786 31 TAXI TO APRON
2026-05-03 19:48:01 3 0 21 1786 31 TAXI TO APRON
2026-05-03 19:48:31 3 0 21 1786 31 TAXI TO APRON
2026-05-03 19:49:01 3 0 21 1786 31 TAXI TO APRON
2026-05-03 19:49:31 1 0 21 1786 31 TAXI TO APRON
2026-05-03 19:50:01 3 0 21 1786 31 TAXI TO APRON
2026-05-03 19:50:31 3 0 21 1786 31 TAXI TO APRON
2026-05-03 19:51:01 2 0 21 1786 31 TAXI TO APRON
2026-05-03 19:51:31 3 0 21 1786 31 TAXI TO APRON
2026-05-03 19:52:01 2 0 21 1786 31 TAXI TO APRON
2026-05-03 19:52:31 2 0 21 1786 31 TAXI TO APRON
2026-05-03 19:53:01 2 0 21 1786 31 TAXI TO APRON
2026-05-03 19:53:31 3 0 21 1786 31 TAXI TO APRON
2026-05-03 19:54:01 3 0 21 1786 31 TAXI TO APRON
2026-05-03 19:54:31 2 0 21 1786 31 TAXI TO APRON
2026-05-03 19:55:01 1 0 21 1786 31 TAXI TO APRON
2026-05-03 19:55:31 2 0 21 1786 31 TAXI TO APRON
2026-05-03 19:56:01 3 0 21 1786 31 TAXI TO APRON
2026-05-03 19:56:31 4 0 21 1786 31 TAXI TO APRON
2026-05-03 19:57:01 4 0 21 1786 31 TAXI TO APRON
2026-05-03 19:57:31 4 0 21 1786 31 TAXI TO APRON
2026-05-03 19:58:01 2 0 21 1786 31 TAXI TO APRON
2026-05-03 19:58:31 2 0 21 1786 31 TAXI TO APRON
2026-05-03 19:59:01 4 0 21 1786 31 TAXI TO APRON
2026-05-03 19:59:31 4 0 21 1786 31 TAXI TO APRON
2026-05-03 20:00:01 3 0 21 1786 31 TAXI TO APRON
2026-05-03 20:00:31 4 0 21 1786 31 TAXI TO APRON
2026-05-03 20:01:01 2 0 21 1786 31 TAXI TO APRON
2026-05-03 20:01:31 2 0 21 1786 31 TAXI TO APRON
2026-05-03 20:02:01 2 0 21 1786 31 TAXI TO APRON
2026-05-03 20:02:31 3 0 21 1786 31 TAXI TO APRON
2026-05-03 20:03:01 4 0 21 1786 31 TAXI TO APRON
2026-05-03 20:03:31 3 0 21 1786 31 TAXI TO APRON
2026-05-03 20:04:01 2 0 21 1786 31 TAXI TO APRON
2026-05-03 20:04:31 4 0 21 1786 31 TAXI TO APRON
2026-05-03 20:05:01 3 0 21 1786 31 TAXI TO APRON
2026-05-03 20:05:31 4 0 21 1786 31 TAXI TO APRON
2026-05-03 20:06:01 4 0 21 1786 31 TAXI TO APRON
2026-05-03 20:06:31 4 0 21 1786 31 TAXI TO APRON
2026-05-03 20:07:01 3 0 21 1786 31 TAXI TO APRON
2026-05-03 20:07:31 2 0 21 1786 31 TAXI TO APRON
2026-05-03 20:08:01 4 0 21 1786 31 TAXI TO APRON
2026-05-03 20:08:31 4 0 21 1786 31 TAXI TO APRON
2026-05-03 20:09:01 4 0 21 1786 31 TAXI TO APRON
2026-05-03 20:09:31 4 0 21 1786 31 TAXI TO APRON
2026-05-03 20:10:01 2 0 21 1786 31 TAXI TO APRON
2026-05-03 20:10:31 2 0 21 1786 31 TAXI TO APRON
2026-05-03 20:11:01 2 0 21 1786 31 TAXI TO APRON
2026-05-03 20:11:31 4 0 21 1786 31 TAXI TO APRON
2026-05-03 20:12:01 4 0 21 1786 31 TAXI TO APRON
2026-05-03 20:12:31 2 0 21 1786 31 TAXI TO APRON
2026-05-03 20:13:01 2 0 21 1786 31 TAXI TO APRON
2026-05-03 20:13:31 4 0 21 1786 31 TAXI TO APRON
2026-05-03 20:14:01 2 0 21 1786 31 TAXI TO APRON
2026-05-03 20:14:31 4 0 21 1786 31 TAXI TO APRON
2026-05-03 20:15:01 4 0 21 1786 31 TAXI TO APRON
2026-05-03 20:15:31 4 0 21 1786 31 TAXI TO APRON
2026-05-03 20:16:01 3 0 21 1786 31 TAXI TO APRON
2026-05-03 20:16:31 2 0 21 1786 31 TAXI TO APRON
2026-05-03 20:17:01 4 0 21 1786 31 TAXI TO APRON
2026-05-03 20:17:31 4 0 21 1786 31 TAXI TO APRON
2026-05-03 20:18:01 3 0 21 1786 31 TAXI TO APRON
2026-05-03 20:18:31 4 0 21 1786 31 TAXI TO APRON
2026-05-03 20:19:01 3 0 21 1786 31 TAXI TO APRON
2026-05-03 20:19:31 2 0 21 1786 31 TAXI TO APRON
2026-05-03 20:20:01 2 0 21 1786 31 TAXI TO APRON
2026-05-03 20:20:31 4 0 21 1786 31 TAXI TO APRON
2026-05-03 20:21:01 4 0 21 1786 31 TAXI TO APRON
2026-05-03 20:21:31 2 0 21 1786 31 TAXI TO APRON
2026-05-03 20:22:01 2 0 21 1786 31 TAXI TO APRON
2026-05-03 20:22:31 3 0 21 1786 31 TAXI TO APRON
2026-05-03 20:23:01 2 0 21 1786 31 TAXI TO APRON
2026-05-03 20:23:31 4 0 21 1786 31 TAXI TO APRON
2026-05-03 20:24:01 4 0 21 1786 31 TAXI TO APRON
2026-05-03 20:24:31 4 0 21 1786 31 TAXI TO APRON
2026-05-03 20:25:01 3 0 21 1786 31 TAXI TO APRON
2026-05-03 20:25:31 2 0 21 1786 31 TAXI TO APRON
2026-05-03 20:26:01 3 0 21 1786 31 TAXI TO APRON
2026-05-03 20:26:31 4 0 21 1786 31 TAXI TO APRON
2026-05-03 20:27:01 2 0 21 1786 31 TAXI TO APRON
2026-05-03 20:27:31 3 0 21 1786 31 TAXI TO APRON
2026-05-03 20:28:01 2 0 21 1786 31 TAXI TO APRON
2026-05-03 20:28:31 2 0 21 1786 31 TAXI TO APRON
2026-05-03 20:29:01 2 0 21 1786 31 TAXI TO APRON
2026-05-03 20:29:31 3 0 21 1786 31 TAXI TO APRON
2026-05-03 20:30:01 3 0 21 1786 31 TAXI TO APRON
2026-05-03 20:30:31 2 0 21 1786 31 TAXI TO APRON
2026-05-03 20:31:01 2 0 21 1786 31 TAXI TO APRON
2026-05-03 20:31:31 2 0 21 1786 31 TAXI TO APRON
2026-05-03 20:32:01 2 0 21 1786 31 TAXI TO APRON
2026-05-03 20:32:31 3 0 21 1786 31 TAXI TO APRON
2026-05-03 20:33:01 3 0 21 1786 31 TAXI TO APRON
2026-05-03 20:33:31 3 0 21 1786 31 TAXI TO APRON
2026-05-03 20:34:01 2 0 21 1786 31 TAXI TO APRON
2026-05-03 20:34:31 2 0 21 1786 31 TAXI TO APRON
2026-05-03 20:35:01 3 0 21 1786 31 TAXI TO APRON
2026-05-03 20:35:31 4 0 21 1786 31 TAXI TO APRON
2026-05-03 20:36:01 2 0 21 1786 31 TAXI TO APRON
2026-05-03 20:36:31 3 0 21 1786 31 TAXI TO APRON
2026-05-03 20:37:01 2 0 21 1786 31 TAXI TO APRON
2026-05-03 20:37:31 2 0 21 1786 31 TAXI TO APRON
2026-05-03 20:38:01 2 0 21 1786 31 TAXI TO APRON
2026-05-03 20:38:31 3 0 21 1786 31 TAXI TO APRON
2026-05-03 20:39:01 3 0 21 1786 31 TAXI TO APRON
2026-05-03 20:39:31 2 0 21 1786 31 TAXI TO APRON
2026-05-03 20:40:01 2 0 21 1786 31 TAXI TO APRON
2026-05-03 20:40:31 3 0 21 1786 31 TAXI TO APRON
2026-05-03 20:41:01 2 0 21 1786 31 TAXI TO APRON
2026-05-03 20:41:31 2 0 21 1786 31 TAXI TO APRON
2026-05-03 20:42:01 4 0 21 1786 31 TAXI TO APRON
2026-05-03 20:42:31 3 0 21 1786 31 TAXI TO APRON
2026-05-03 20:43:01 2 0 21 1786 31 TAXI TO APRON
2026-05-03 20:43:31 2 0 21 1786 31 TAXI TO APRON
2026-05-03 20:44:01 3 0 21 1786 31 TAXI TO APRON
2026-05-03 20:44:31 4 0 21 1786 31 TAXI TO APRON
2026-05-03 20:45:01 3 0 21 1786 31 TAXI TO APRON
2026-05-03 20:45:31 3 0 21 1786 31 TAXI TO APRON
2026-05-03 20:46:01 2 0 21 1786 31 TAXI TO APRON
2026-05-03 20:46:31 2 0 21 1786 31 TAXI TO APRON
2026-05-03 20:47:01 2 0 21 1786 31 TAXI TO APRON
2026-05-03 20:47:31 3 0 21 1786 31 TAXI TO APRON
2026-05-03 20:48:01 4 0 21 1786 31 TAXI TO APRON
2026-05-03 20:48:31 2 0 21 1786 31 TAXI TO APRON
2026-05-03 20:49:01 2 0 21 1786 31 TAXI TO APRON
2026-05-03 20:49:31 3 0 21 1786 31 TAXI TO APRON
2026-05-03 20:50:01 2 0 21 1786 31 TAXI TO APRON
2026-05-03 20:50:31 3 0 21 1786 31 TAXI TO APRON
2026-05-03 20:51:01 4 0 21 1786 31 TAXI TO APRON
2026-05-03 20:51:31 3 0 21 1786 31 TAXI TO APRON
2026-05-03 20:52:01 2 0 21 1786 31 TAXI TO APRON
2026-05-03 20:52:31 2 0 21 1786 31 TAXI TO APRON
2026-05-03 20:53:01 3 0 21 1786 31 TAXI TO APRON
2026-05-03 20:53:31 4 0 21 1786 31 TAXI TO APRON
2026-05-03 20:54:01 3 0 21 1786 31 TAXI TO APRON
2026-05-03 20:54:31 4 0 21 1786 31 TAXI TO APRON
2026-05-03 20:55:01 3 0 21 1786 31 TAXI TO APRON
2026-05-03 20:55:31 2 0 21 1786 31 TAXI TO APRON
2026-05-03 20:56:01 2 0 21 1786 31 TAXI TO APRON
2026-05-03 20:56:31 3 0 21 1786 31 TAXI TO APRON
2026-05-03 20:57:01 3 0 21 1786 31 TAXI TO APRON
2026-05-03 20:57:31 2 0 21 1786 31 TAXI TO APRON
2026-05-03 20:58:01 2 0 21 1786 31 TAXI TO APRON
2026-05-03 20:58:31 2 0 21 1786 31 TAXI TO APRON
2026-05-03 20:59:01 2 0 21 1786 31 TAXI TO APRON
2026-05-03 20:59:31 3 0 21 1786 31 TAXI TO APRON
2026-05-03 21:00:01 4 0 21 1786 31 TAXI TO APRON
2026-05-03 21:00:31 3 0 21 1786 31 TAXI TO APRON
2026-05-03 21:01:01 2 0 21 1786 31 TAXI TO APRON
2026-05-03 21:01:31 2 0 21 1786 31 TAXI TO APRON
2026-05-03 21:02:01 4 0 21 1786 31 TAXI TO APRON
2026-05-03 21:02:31 4 0 21 1786 31 TAXI TO APRON
2026-05-03 21:03:01 2 0 21 1786 31 TAXI TO APRON
2026-05-03 21:03:31 4 0 21 1786 31 TAXI TO APRON
2026-05-03 21:04:01 3 0 21 1786 31 TAXI TO APRON
2026-05-03 21:04:31 2 0 21 1786 31 TAXI TO APRON
2026-05-03 21:05:01 3 0 21 1786 31 TAXI TO APRON
2026-05-03 21:05:31 4 0 21 1786 31 TAXI TO APRON
2026-05-03 21:06:01 3 0 21 1786 31 TAXI TO APRON
2026-05-03 21:06:31 3 0 21 1786 31 TAXI TO APRON
2026-05-03 21:07:01 2 0 21 1786 31 TAXI TO APRON
2026-05-03 21:07:31 2 0 21 1786 31 TAXI TO APRON
2026-05-03 21:08:01 2 0 21 1786 31 TAXI TO APRON
2026-05-03 21:08:31 2 0 21 1786 31 TAXI TO APRON
2026-05-03 21:09:01 4 0 21 1786 31 TAXI TO APRON
2026-05-03 21:09:31 4 0 21 1786 31 TAXI TO APRON
2026-05-03 21:10:01 2 0 21 1786 31 TAXI TO APRON
2026-05-03 21:10:31 2 0 21 1786 31 TAXI TO APRON
2026-05-03 21:11:01 3 0 21 1786 31 TAXI TO APRON
2026-05-03 21:11:31 3 0 21 1786 31 TAXI TO APRON
2026-05-03 21:12:01 3 0 21 1786 31 TAXI TO APRON
2026-05-03 21:12:31 3 0 21 1786 31 TAXI TO APRON
2026-05-03 21:13:01 2 0 21 1786 31 TAXI TO APRON
2026-05-03 21:13:31 1 0 21 1786 31 TAXI TO APRON
2026-05-03 21:14:01 2 0 21 1786 31 TAXI TO APRON
2026-05-03 21:14:31 3 0 21 1786 31 TAXI TO APRON
2026-05-03 21:15:01 3 0 21 1786 31 TAXI TO APRON
2026-05-03 21:15:31 2 0 21 1786 31 TAXI TO APRON
2026-05-03 21:16:01 1 0 21 1786 31 TAXI TO APRON
2026-05-03 21:16:31 2 0 21 1786 31 TAXI TO APRON
2026-05-03 21:17:01 1 0 21 1786 31 TAXI TO APRON
2026-05-03 21:17:31 2 0 21 1786 31 TAXI TO APRON
2026-05-03 21:18:01 3 0 21 1786 31 TAXI TO APRON
2026-05-03 21:18:31 2 0 21 1786 31 TAXI TO APRON
2026-05-03 21:19:01 1 0 21 1786 31 TAXI TO APRON
2026-05-03 21:19:31 3 0 21 1786 31 TAXI TO APRON
2026-05-03 21:20:01 2 0 21 1786 31 TAXI TO APRON
2026-05-03 21:20:31 3 0 21 1786 31 TAXI TO APRON
2026-05-03 21:21:01 3 0 21 1786 31 TAXI TO APRON
2026-05-03 21:21:31 3 0 21 1786 31 TAXI TO APRON
2026-05-03 21:22:01 2 0 21 1786 31 TAXI TO APRON
2026-05-03 21:22:31 1 0 21 1786 31 TAXI TO APRON
2026-05-03 21:23:01 2 0 21 1786 31 TAXI TO APRON
2026-05-03 21:23:31 3 0 21 1786 31 TAXI TO APRON
2026-05-03 21:24:01 3 0 21 1786 31 TAXI TO APRON
2026-05-03 21:24:31 2 0 21 1786 31 TAXI TO APRON
2026-05-03 21:25:01 2 0 21 1786 31 TAXI TO APRON
2026-05-03 21:25:31 2 0 21 1786 31 TAXI TO APRON
2026-05-03 21:26:01 1 0 21 1786 30 TAXI TO APRON
2026-05-03 21:26:31 1 0 21 1786 30 TAXI TO APRON
2026-05-03 21:27:01 2 0 21 1786 30 TAXI TO APRON
2026-05-03 21:27:31 1 0 21 1786 30 TAXI TO APRON
2026-05-03 21:28:01 1 0 21 1786 30 TAXI TO APRON
2026-05-03 21:28:31 1 0 21 1786 30 TAXI TO APRON
2026-05-03 21:29:01 1 0 21 1786 30 TAXI TO APRON
2026-05-03 21:29:31 2 0 21 1786 30 TAXI TO APRON
2026-05-03 21:30:01 2 0 21 1786 30 TAXI TO APRON
2026-05-03 21:30:31 2 0 21 1786 30 TAXI TO APRON
2026-05-03 21:31:01 1 0 21 1786 30 TAXI TO APRON
2026-05-03 21:31:31 1 0 21 1786 30 TAXI TO APRON
2026-05-03 21:32:01 1 0 21 1786 30 TAXI TO APRON
2026-05-03 21:32:31 2 0 21 1786 30 TAXI TO APRON
2026-05-03 21:33:01 1 0 21 1786 30 TAXI TO APRON
2026-05-03 21:33:31 1 0 21 1786 30 TAXI TO APRON
2026-05-03 21:34:01 1 0 21 1786 30 TAXI TO APRON
2026-05-03 21:34:31 1 0 21 1786 30 TAXI TO APRON
2026-05-03 21:35:01 1 0 21 1786 30 TAXI TO APRON
2026-05-03 21:35:31 1 0 21 1786 30 TAXI TO APRON
2026-05-03 21:36:01 2 0 21 1786 30 TAXI TO APRON
2026-05-03 21:36:31 1 0 21 1786 30 TAXI TO APRON
2026-05-03 21:37:01 1 0 21 1786 30 TAXI TO APRON
2026-05-03 21:37:31 1 0 21 1786 30 TAXI TO APRON
2026-05-03 21:38:01 1 0 21 1786 30 TAXI TO APRON
2026-05-03 21:38:31 2 0 21 1786 30 TAXI TO APRON
2026-05-03 21:39:01 2 0 21 1786 30 TAXI TO APRON
2026-05-03 21:39:31 2 0 21 1786 30 TAXI TO APRON
2026-05-03 21:40:01 1 0 21 1786 30 TAXI TO APRON
2026-05-03 21:40:31 1 0 21 1786 30 TAXI TO APRON
2026-05-03 21:41:01 2 0 21 1786 30 TAXI TO APRON
2026-05-03 21:41:31 1 0 21 1786 30 TAXI TO APRON
2026-05-03 21:42:01 0 0 21 1786 30 TAXI TO APRON
2026-05-03 21:42:31 1 0 21 1786 30 TAXI TO APRON
2026-05-03 21:43:01 0 0 21 1786 30 TAXI TO APRON
2026-05-03 21:43:31 0 0 21 1786 30 TAXI TO APRON
2026-05-03 21:44:01 0 0 21 1786 30 TAXI TO APRON
2026-05-03 21:44:31 1 0 21 1786 30 TAXI TO APRON
2026-05-03 21:45:01 1 0 21 1786 30 TAXI TO APRON
2026-05-03 21:45:31 0 0 21 1786 30 TAXI TO APRON
2026-05-03 21:46:01 0 0 21 1786 30 TAXI TO APRON
2026-05-03 21:46:31 1 0 21 1786 30 TAXI TO APRON
2026-05-03 21:47:01 0 0 21 1786 30 TAXI TO APRON
2026-05-03 21:47:31 1 0 21 1786 30 TAXI TO APRON
2026-05-03 21:48:01 1 0 21 1786 30 TAXI TO APRON
2026-05-03 21:48:31 1 0 21 1786 30 TAXI TO APRON
2026-05-03 21:49:01 0 0 21 1786 30 TAXI TO APRON
2026-05-03 21:49:31 0 0 21 1786 30 TAXI TO APRON
  • Join our VA!

    It has been 11 years of great learning, friendships, and stories.

  • Sign up now!